Time;durP1;ratioP1;P1;durP2;ratioP2;P2;SDS_P1;SDS_P2;PMS_P1;PMS_P2;Temp;Humidity;BMP_temperature;BMP_pressure;BME280_temperature;BME280_humidity;BME280_pressure;Samples;Min_cycle;Max_cycle;Signal;HPM_P1;HPM_P2
2021/07/01 00:02:15;;;;;;;21.42;6.60;;;;;;;23.00;72.60;100798.00;4945064;27;102253;-63
2021/07/01 00:04:42;;;;;;;5.90;5.47;;;;;;;22.99;72.90;100793.63;4935667;27;103950;-63
2021/07/01 00:07:11;;;;;;;6.60;6.00;;;;;;;23.00;72.89;100793.25;4942324;27;102244;-63
2021/07/01 00:09:37;;;;;;;6.30;5.80;;;;;;;23.00;72.99;100798.00;4945796;28;102639;-63
2021/07/01 00:12:04;;;;;;;6.57;6.05;;;;;;;22.98;72.95;100809.47;4952827;27;102643;-63
2021/07/01 00:14:31;;;;;;;6.30;5.80;;;;;;;22.99;72.90;100793.63;4931185;27;103757;-63
2021/07/01 00:16:58;;;;;;;8.90;6.10;;;;;;;22.99;73.03;100788.06;4941035;27;102138;-63
2021/07/01 00:19:26;;;;;;;35.30;9.93;;;;;;;22.99;72.83;100793.63;4943221;27;102536;-64
2021/07/01 00:21:53;;;;;;;6.57;6.00;;;;;;;22.97;73.05;100774.56;4935885;27;102516;-63
2021/07/01 00:24:19;;;;;;;6.38;5.88;;;;;;;22.98;73.06;100776.16;4944934;27;103187;-64
2021/07/01 00:26:46;;;;;;;6.40;5.80;;;;;;;22.99;73.10;100782.50;4942336;27;102073;-64
2021/07/01 00:29:13;;;;;;;6.22;5.72;;;;;;;22.98;72.95;100781.72;4936405;27;102063;-64
2021/07/01 00:31:41;;;;;;;6.38;5.75;;;;;;;22.98;72.48;100770.59;4945024;27;102201;-64
2021/07/01 00:34:08;;;;;;;5.88;5.38;;;;;;;22.99;73.16;100771.41;4931538;27;103715;-65
2021/07/01 00:36:35;;;;;;;6.00;5.50;;;;;;;22.99;73.06;100782.50;4942408;27;102239;-64
2021/07/01 00:39:03;;;;;;;6.00;5.50;;;;;;;22.99;72.87;100774.19;4943917;27;102791;-64
2021/07/01 00:41:29;;;;;;;5.88;5.40;;;;;;;22.98;73.08;100769.81;4944591;27;102319;-64
2021/07/01 00:43:56;;;;;;;6.10;5.60;;;;;;;22.97;73.03;100768.16;4935087;27;103762;-64
2021/07/01 00:46:23;;;;;;;5.68;5.22;;;;;;;22.99;73.16;100771.41;4944359;27;102499;-64
2021/07/01 00:48:51;;;;;;;5.90;5.45;;;;;;;22.99;73.09;100788.06;4937195;27;102679;-63
2021/07/01 00:51:17;;;;;;;6.03;5.53;;;;;;;22.98;72.97;100783.69;4950698;27;102749;-64
2021/07/01 00:53:45;;;;;;;6.53;6.03;;;;;;;22.97;72.88;100784.81;4944678;27;103856;-64
2021/07/01 00:56:14;;;;;;;6.00;5.50;;;;;;;22.98;72.93;100795.59;4945305;28;102214;-63
2021/07/01 00:58:42;;;;;;;5.32;4.95;;;;;;;22.98;73.12;100792.00;4934662;28;102386;-64
2021/07/01 01:01:08;;;;;;;5.75;5.35;;;;;;;22.98;72.81;100803.09;4939553;27;102373;-64
2021/07/01 01:03:37;;;;;;;6.13;5.43;;;;;;;22.97;72.95;100812.56;4950261;27;103930;-64
2021/07/01 01:06:06;;;;;;;6.13;5.53;;;;;;;22.97;72.95;100807.03;4942767;27;102043;-64
2021/07/01 01:08:32;;;;;;;6.00;5.50;;;;;;;22.98;72.87;100814.22;4944616;27;102389;-64
2021/07/01 01:11:00;;;;;;;6.05;5.55;;;;;;;22.97;72.83;100807.84;4943010;27;102393;-64
2021/07/01 01:13:27;;;;;;;6.03;5.53;;;;;;;22.97;73.03;100815.34;4943111;27;104094;-64
2021/07/01 01:15:57;;;;;;;6.40;5.80;;;;;;;22.96;73.00;100814.53;4950645;27;102033;-64
2021/07/01 01:18:24;;;;;;;5.75;5.35;;;;;;;22.97;72.86;100829.22;4942663;27;102143;-64
2021/07/01 01:20:52;;;;;;;5.38;4.97;;;;;;;22.96;72.80;100833.97;4943730;27;102300;-64
2021/07/01 01:23:20;;;;;;;6.00;5.50;;;;;;;22.97;73.11;100840.31;4932044;27;104048;-64
2021/07/01 01:25:47;;;;;;;;;;;;;;;22.96;73.01;100833.16;4940014;27;102138;-63
2021/07/01 01:28:15;;;;;;;5.57;5.17;;;;;;;22.97;72.91;100820.91;4942591;27;102970;-63
2021/07/01 01:30:44;;;;;;;6.40;5.68;;;;;;;22.96;72.82;100825.66;4944583;27;102521;-64
2021/07/01 01:33:11;;;;;;;5.63;5.15;;;;;;;22.97;72.70;100823.69;4944167;27;103828;-64
2021/07/01 01:35:39;;;;;;;6.00;5.40;;;;;;;22.96;72.88;100830.41;4938263;27;102224;-64
2021/07/01 01:38:10;;;;;;;5.40;5.00;;;;;;;22.97;72.73;100841.16;4943195;27;102513;-63
2021/07/01 01:40:39;;;;;;;5.85;5.00;;;;;;;22.96;72.81;100833.16;4940115;27;102457;-64
2021/07/01 01:43:06;;;;;;;5.72;5.25;;;;;;;22.96;72.83;100827.63;4932859;27;103692;-64
2021/07/01 01:45:36;;;;;;;5.97;5.47;;;;;;;22.96;72.73;100830.41;4940215;27;102457;-64
2021/07/01 01:48:04;;;;;;;6.28;5.78;;;;;;;22.95;72.75;100826.00;4942819;28;103056;-65
2021/07/01 01:50:31;;;;;;;5.63;5.20;;;;;;;22.94;72.89;100829.97;4942996;27;102278;-64
2021/07/01 01:52:57;;;;;;;5.28;4.88;;;;;;;22.94;72.94;100818.84;4931962;27;103943;-64
2021/07/01 01:55:24;;;;;;;5.38;4.97;;;;;;;22.92;73.00;100810.88;4935930;27;102371;-64
2021/07/01 01:57:53;;;;;;;5.78;5.20;;;;;;;22.94;72.84;100807.75;4943638;27;102512;-64
2021/07/01 02:00:22;;;;;;;6.20;5.38;;;;;;;22.93;72.92;100809.69;4943426;27;102227;-64
2021/07/01 02:02:49;;;;;;;7.32;5.45;;;;;;;22.94;72.64;100791.91;4947579;27;103953;-64
2021/07/01 02:05:16;;;;;;;6.55;6.00;;;;;;;22.93;72.77;100795.00;4942722;27;102245;-64
2021/07/01 02:07:44;;;;;;;5.70;5.28;;;;;;;22.94;72.95;100791.91;4954697;27;102714;-63
2021/07/01 02:10:11;;;;;;;26.13;6.15;;;;;;;22.93;72.84;100790.28;4942741;27;102157;-64
2021/07/01 02:12:38;;;;;;;5.78;5.28;;;;;;;22.95;72.52;100787.16;4937738;27;103676;-64
2021/07/01 02:15:08;;;;;;;5.75;5.25;;;;;;;22.94;72.75;100774.44;4934592;27;102381;-63
2021/07/01 02:17:36;;;;;;;5.25;4.85;;;;;;;22.94;72.62;100777.22;4941557;27;102934;-64
2021/07/01 02:20:04;;;;;;;5.63;5.13;;;;;;;22.95;72.82;100784.38;4942117;27;103347;-64
2021/07/01 02:22:31;;;;;;;5.78;5.28;;;;;;;22.94;72.80;100775.25;4943918;27;103745;-64
2021/07/01 02:24:58;;;;;;;5.20;4.70;;;;;;;22.93;72.69;100768.06;4941650;27;102077;-64
2021/07/01 02:27:24;;;;;;;5.25;4.85;;;;;;;22.94;73.04;100780.00;4939972;27;102021;-64
2021/07/01 02:29:51;;;;;;;5.13;4.60;;;;;;;22.93;72.69;100781.16;4956533;27;102405;-64
2021/07/01 02:32:19;;;;;;;5.32;4.85;;;;;;;22.93;72.66;100787.50;4959886;27;103898;-64
2021/07/01 02:34:47;;;;;;;5.38;4.75;;;;;;;22.92;72.85;100788.66;4943867;27;102267;-64
2021/07/01 02:37:22;;;;;;;5.03;4.63;;;;;;;22.92;72.98;100787.84;4950823;27;102500;-64
2021/07/01 02:39:50;;;;;;;4.95;4.60;;;;;;;22.93;72.79;100800.56;4950134;27;102223;-64
2021/07/01 02:42:16;;;;;;;5.55;5.03;;;;;;;22.94;72.70;100818.84;4944162;27;103895;-64
2021/07/01 02:44:43;;;;;;;5.40;4.90;;;;;;;22.92;72.87;100805.31;4945743;27;102594;-64
2021/07/01 02:47:10;;;;;;;8.18;5.15;;;;;;;22.94;72.86;100810.53;4941124;27;102482;-64
2021/07/01 02:49:40;;;;;;;5.80;5.33;;;;;;;22.93;72.75;100826.34;4945487;28;102189;-64
2021/07/01 02:52:07;;;;;;;5.05;4.60;;;;;;;22.92;72.73;100826.72;4952080;27;104013;-64
2021/07/01 02:54:33;;;;;;;5.25;4.90;;;;;;;22.92;72.78;100819.19;4940662;27;102907;-64
2021/07/01 02:57:01;;;;;;;5.80;5.30;;;;;;;22.93;72.90;100822.78;4953729;27;102567;-65
2021/07/01 02:59:27;;;;;;;4.95;4.55;;;;;;;22.93;72.56;100828.31;4943729;27;102168;-64
2021/07/01 03:01:56;;;;;;;;;;;;;;;22.92;72.93;100815.63;4944910;27;103926;-64
2021/07/01 03:04:22;;;;;;;5.20;4.80;;;;;;;22.92;72.90;100818.38;4944150;27;102494;-64
2021/07/01 03:06:50;;;;;;;5.10;4.57;;;;;;;22.92;72.68;100815.63;4939190;27;102006;-64
2021/07/01 03:09:17;;;;;;;5.22;4.63;;;;;;;22.93;72.84;100811.66;4981708;27;102434;-64
2021/07/01 03:11:58;;;;;;;5.13;4.72;;;;;;;22.91;72.78;100798.13;4937875;27;103977;-64
2021/07/01 03:14:25;;;;;;;5.18;4.78;;;;;;;22.91;72.90;100786.22;4943418;27;102032;-64
2021/07/01 03:16:53;;;;;;;5.72;5.22;;;;;;;22.92;72.80;100765.66;4949492;27;102235;-64
2021/07/01 03:19:19;;;;;;;9.40;4.82;;;;;;;22.91;72.64;100752.91;4944080;27;102610;-64
2021/07/01 03:21:46;;;;;;;5.80;5.20;;;;;;;22.91;72.89;100744.59;4944451;28;103907;-64
2021/07/01 03:24:14;;;;;;;4.70;4.38;;;;;;;22.92;72.68;100726.81;4946904;27;102479;-64
2021/07/01 03:26:41;;;;;;;4.90;4.50;;;;;;;22.93;72.65;100725.63;4940133;27;102424;-65
2021/07/01 03:29:08;;;;;;;4.40;4.10;;;;;;;22.91;72.54;100720.44;4950027;27;102432;-64
2021/07/01 03:31:34;;;;;;;5.32;4.82;;;;;;;22.89;73.03;100731.06;4941224;27;102923;-64
2021/07/01 03:34:01;;;;;;;4.72;4.30;;;;;;;22.92;72.87;100715.72;4946193;27;102205;-65
2021/07/01 03:36:27;;;;;;;5.75;4.80;;;;;;;22.92;72.71;100710.97;4942741;27;102027;-64
2021/07/01 03:38:54;;;;;;;5.30;4.90;;;;;;;22.92;72.65;100710.16;4940846;27;102393;-64
2021/07/01 03:41:22;;;;;;;5.35;4.85;;;;;;;22.93;72.66;100700.66;4938607;27;104661;-64
2021/07/01 03:43:51;;;;;;;25.57;6.67;;;;;;;22.92;72.61;100693.50;4945706;27;102264;-64
2021/07/01 03:46:18;;;;;;;4.95;4.55;;;;;;;22.93;72.97;100670.94;4941048;27;102294;-64
2021/07/01 03:48:44;;;;;;;5.30;4.90;;;;;;;22.93;72.90;100653.50;4948023;27;102249;-64
2021/07/01 03:51:11;;;;;;;4.93;4.50;;;;;;;22.92;72.91;100643.56;4939205;27;103940;-64
2021/07/01 03:53:37;;;;;;;4.55;4.25;;;;;;;22.92;72.85;100657.44;4938547;27;102451;-64
2021/07/01 03:56:04;;;;;;;5.05;4.63;;;;;;;22.92;72.83;100654.66;4944602;27;102487;-64
2021/07/01 03:58:32;;;;;;;4.72;4.43;;;;;;;22.92;72.89;100638.81;4943865;27;102674;-64
2021/07/01 04:00:59;;;;;;;4.72;4.32;;;;;;;22.92;72.93;100632.47;4939426;27;103916;-64
2021/07/01 04:03:26;;;;;;;5.68;4.72;;;;;;;22.93;72.91;100634.88;4941220;27;102214;-64
2021/07/01 04:05:52;;;;;;;4.57;4.28;;;;;;;22.95;72.69;100626.19;4941703;28;102581;-63
2021/07/01 04:08:19;;;;;;;5.40;4.63;;;;;;;22.94;72.70;100608.75;4935407;28;102380;-64
2021/07/01 04:10:47;;;;;;;4.82;4.53;;;;;;;22.93;72.79;100607.13;4937652;27;104271;-64
2021/07/01 04:13:14;;;;;;;4.82;4.43;;;;;;;22.95;72.81;100609.53;4944172;27;102061;-64
2021/07/01 04:15:42;;;;;;;4.68;4.28;;;;;;;22.95;72.66;100604.00;4942422;27;102280;-64
2021/07/01 04:18:09;;;;;;;5.13;4.70;;;;;;;22.90;73.12;100607.00;4948723;27;103053;-64
2021/07/01 04:20:36;;;;;;;5.32;4.93;;;;;;;22.94;72.76;100591.28;4945032;27;104186;-64
2021/07/01 04:23:04;;;;;;;5.20;4.80;;;;;;;22.95;72.68;100592.91;4943938;27;102235;-64
2021/07/01 04:25:33;;;;;;;5.10;4.70;;;;;;;22.94;73.04;100596.84;4942020;27;102497;-64
2021/07/01 04:28:00;;;;;;;5.03;4.63;;;;;;;22.94;72.85;100596.84;4938325;27;102489;-66
2021/07/01 04:30:27;;;;;;;5.78;5.15;;;;;;;22.92;73.06;100585.28;4943232;27;103852;-64
2021/07/01 04:32:56;;;;;;;4.97;4.47;;;;;;;22.89;73.24;100581.22;4940869;27;102768;-64
2021/07/01 04:35:22;;;;;;;5.30;4.90;;;;;;;22.91;73.25;100591.97;4931253;27;102565;-64
2021/07/01 04:37:50;;;;;;;5.70;5.00;;;;;;;22.88;73.08;100587.94;4942265;27;102199;-64
2021/07/01 04:40:17;;;;;;;5.60;5.10;;;;;;;22.89;73.03;100575.66;4939882;27;103894;-64
2021/07/01 04:42:44;;;;;;;5.63;5.20;;;;;;;22.91;73.10;100575.31;4944284;27;102668;-64
2021/07/01 04:45:11;;;;;;;5.35;4.90;;;;;;;22.89;73.14;100572.09;4936874;27;102396;-64
2021/07/01 04:47:37;;;;;;;5.55;5.03;;;;;;;22.88;73.17;100565.75;4936177;28;102839;-64
2021/07/01 04:50:08;;;;;;;6.25;5.60;;;;;;;22.88;73.00;100554.63;4946372;27;103911;-64
2021/07/01 04:52:34;;;;;;;5.95;5.55;;;;;;;22.89;73.39;100561.78;4940310;27;104077;-64
2021/07/01 04:55:01;;;;;;;5.75;5.10;;;;;;;22.89;73.10;100574.88;4942516;27;102078;-64
2021/07/01 04:57:28;;;;;;;5.60;5.10;;;;;;;22.94;73.13;100582.97;4941668;27;102510;-64
2021/07/01 04:59:55;;;;;;;6.07;5.47;;;;;;;22.92;73.02;100582.50;4938661;27;102727;-65
2021/07/01 05:02:21;;;;;;;6.05;5.45;;;;;;;22.92;72.79;100585.28;4937892;27;102173;-64
2021/07/01 05:04:48;;;;;;;5.88;5.18;;;;;;;22.88;72.73;100598.22;4940184;27;102503;-64
2021/07/01 05:07:16;;;;;;;6.35;5.68;;;;;;;22.88;72.77;100614.88;4938110;27;102849;-64
2021/07/01 05:09:42;;;;;;;7.50;6.85;;;;;;;22.88;72.46;100625.97;4937440;27;103956;-64
2021/07/01 05:12:09;;;;;;;5.85;5.35;;;;;;;22.89;72.87;100633.13;4941157;27;102185;-64
2021/07/01 05:14:39;;;;;;;6.28;5.35;;;;;;;22.91;72.77;100644.69;4934540;27;102555;-64
2021/07/01 05:17:05;;;;;;;6.25;5.65;;;;;;;22.92;72.83;100649.91;4937931;27;102287;-64
2021/07/01 05:19:32;;;;;;;6.18;5.65;;;;;;;22.92;72.87;100668.53;4939583;27;103889;-63
2021/07/01 05:21:59;;;;;;;48.47;7.53;;;;;;;22.92;72.79;100679.63;4933962;27;102316;-63
2021/07/01 05:24:26;;;;;;;5.55;5.05;;;;;;;22.91;72.73;100694.66;4940800;27;102710;-64
2021/07/01 05:26:53;;;;;;;5.10;4.70;;;;;;;22.92;72.78;100715.72;4945400;27;102267;-64
2021/07/01 05:29:20;;;;;;;31.02;6.45;;;;;;;22.92;72.93;100727.63;4940404;27;104316;-63
2021/07/01 05:31:47;;;;;;;5.65;5.15;;;;;;;22.92;72.77;100733.16;4920577;27;104186;-63
2021/07/01 05:34:14;;;;;;;4.93;4.53;;;;;;;22.93;72.81;100722.88;4939359;27;102574;-64
2021/07/01 05:36:40;;;;;;;5.43;5.00;;;;;;;22.94;72.48;100716.19;4939330;27;102617;-63
2021/07/01 05:39:07;;;;;;;6.78;5.15;;;;;;;22.94;72.85;100718.94;4955214;27;103945;-64
2021/07/01 05:41:35;;;;;;;6.82;5.93;;;;;;;22.92;72.95;100719.28;4944468;27;102465;-63
2021/07/01 05:44:03;;;;;;;5.55;5.15;;;;;;;22.92;72.65;100726.81;4931583;27;102356;-64
2021/07/01 05:46:30;;;;;;;5.75;5.32;;;;;;;22.91;73.22;100731.53;4948378;28;102299;-64
2021/07/01 05:48:57;;;;;;;5.43;4.97;;;;;;;22.92;72.89;100732.34;4933667;27;103821;-63
2021/07/01 05:51:24;;;;;;;6.60;5.60;;;;;;;22.89;73.11;100714.41;4949611;27;102417;-63
2021/07/01 05:56:17;;;;;;;6.60;6.03;;;;;;;22.89;73.02;100694.97;4942432;27;103546;-63
2021/07/01 05:58:45;;;;;;;5.80;5.28;;;;;;;22.91;72.96;100702.97;4938455;28;102744;-63
2021/07/01 06:01:12;;;;;;;6.33;5.73;;;;;;;22.91;73.13;100686.31;4943320;27;102662;-63
2021/07/01 06:03:38;;;;;;;8.13;5.40;;;;;;;22.88;73.35;100675.94;4944283;27;102652;-63
2021/07/01 06:06:10;;;;;;;6.30;5.70;;;;;;;22.89;73.22;100683.88;4940354;27;102285;-63
2021/07/01 06:08:39;;;;;;;6.57;5.88;;;;;;;22.88;72.84;100676.72;4939472;27;104124;-64
2021/07/01 06:11:07;;;;;;;5.70;5.20;;;;;;;22.87;72.58;100674.31;4938032;27;102686;-63
2021/07/01 06:13:37;;;;;;;6.25;5.75;;;;;;;22.91;73.30;100680.78;4958937;27;102155;-63
2021/07/01 06:16:10;;;;;;;5.88;5.38;;;;;;;22.92;73.19;100686.00;4937895;27;103495;-63
2021/07/01 06:18:40;;;;;;;6.07;5.47;;;;;;;22.90;73.32;100681.91;4933313;27;104084;-63
2021/07/01 06:21:07;;;;;;;6.05;5.13;;;;;;;22.88;73.14;100673.16;4938957;27;102376;-63
2021/07/01 06:23:37;;;;;;;7.43;5.97;;;;;;;22.91;73.19;100658.56;4935349;27;104604;-64
2021/07/01 06:26:04;;;;;;;7.10;6.50;;;;;;;22.91;73.30;100653.03;4942793;27;103523;-64
2021/07/01 06:28:34;;;;;;;11.43;8.75;;;;;;;22.87;73.26;100658.47;4938211;27;104090;-64
2021/07/01 06:31:01;;;;;;;9.68;8.68;;;;;;;22.86;73.51;100689.34;4934254;27;102618;-64
2021/07/01 06:33:29;;;;;;;9.35;8.45;;;;;;;22.86;73.34;100678.25;4944668;27;102593;-64
2021/07/01 06:35:56;;;;;;;9.68;8.65;;;;;;;22.89;73.51;100674.75;4945934;28;102306;-64
2021/07/01 06:38:25;;;;;;;9.20;7.97;;;;;;;22.91;73.39;100686.31;4936264;27;103907;-64
2021/07/01 06:40:53;;;;;;;8.27;7.47;;;;;;;22.91;73.33;100697.44;4962287;27;102363;-63
2021/07/01 06:43:20;;;;;;;7.68;6.78;;;;;;;22.87;73.54;100721.50;4951388;27;102635;-63
2021/07/01 06:45:49;;;;;;;7.28;6.55;;;;;;;22.86;73.44;100733.72;4933630;27;102821;-64
2021/07/01 06:48:16;;;;;;;7.35;6.55;;;;;;;22.87;73.28;100757.56;4940979;27;103884;-64
2021/07/01 06:50:45;;;;;;;7.53;6.72;;;;;;;22.91;73.01;100777.91;4946747;28;102531;-63
2021/07/01 06:53:14;;;;;;;7.80;7.10;;;;;;;22.92;72.83;100801.72;4939188;27;102182;-63
2021/07/01 06:55:43;;;;;;;7.57;6.97;;;;;;;22.94;73.03;100863.25;4934627;27;103133;-64
2021/07/01 06:58:11;;;;;;;7.70;6.95;;;;;;;22.93;73.33;100886.59;4941349;27;103043;-64
2021/07/01 07:00:38;;;;;;;7.18;6.47;;;;;;;22.94;73.18;100904.88;4934720;27;102455;-64
2021/07/01 07:03:05;;;;;;;8.98;7.20;;;;;;;22.95;73.15;100887.06;4934659;27;102518;-63
2021/07/01 07:05:32;;;;;;;7.07;6.53;;;;;;;22.94;73.09;100879.91;4942968;28;102842;-64
2021/07/01 07:08:00;;;;;;;8.05;7.07;;;;;;;22.95;73.27;100862.09;4950792;27;103911;-64
2021/07/01 07:10:27;;;;;;;7.50;6.90;;;;;;;22.93;73.20;100851.31;4944524;27;102221;-63
2021/07/01 07:12:55;;;;;;;8.40;7.55;;;;;;;22.95;73.26;100864.88;4949340;27;102479;-64
2021/07/01 07:15:28;;;;;;;8.07;7.38;;;;;;;22.94;72.99;100857.72;4938422;27;102298;-64
2021/07/01 07:18:00;;;;;;;7.47;6.88;;;;;;;22.94;73.15;100854.94;4963389;27;103915;-64
2021/07/01 07:20:29;;;;;;;8.25;7.55;;;;;;;22.95;73.31;100856.53;4949770;27;102277;-64
2021/07/01 07:22:58;;;;;;;9.07;7.03;;;;;;;22.96;73.11;100855.38;4945489;27;102531;-64
2021/07/01 07:25:27;;;;;;;8.07;7.40;;;;;;;22.96;72.99;100844.28;4945349;27;102613;-64
2021/07/01 07:27:57;;;;;;;7.70;6.93;;;;;;;22.97;73.43;100851.44;4941690;27;103872;-64
2021/07/01 07:30:26;;;;;;;8.00;7.30;;;;;;;22.96;73.42;100827.63;4939503;27;102038;-64
2021/07/01 07:32:54;;;;;;;7.72;7.05;;;;;;;22.95;73.12;100810.16;4948259;27;102894;-63
2021/07/01 07:35:21;;;;;;;7.73;7.13;;;;;;;22.96;73.41;100822.88;4940232;27;102137;-64
2021/07/01 07:37:48;;;;;;;7.85;7.15;;;;;;;22.96;73.22;100824.84;4939858;27;102773;-64
2021/07/01 07:40:15;;;;;;;7.03;6.43;;;;;;;22.97;73.14;100832.00;4945371;27;102265;-64
2021/07/01 07:42:45;;;;;;;8.13;7.07;;;;;;;22.97;73.40;100829.22;4951980;27;102135;-63
2021/07/01 07:45:13;;;;;;;8.23;7.55;;;;;;;22.96;73.39;100825.66;4941366;28;102596;-64
2021/07/01 07:47:41;;;;;;;7.83;7.23;;;;;;;22.98;73.26;100811.44;4930509;27;103906;-64
2021/07/01 07:50:10;;;;;;;6.68;6.10;;;;;;;22.99;73.41;100815.81;4946973;27;102540;-64
2021/07/01 07:52:44;;;;;;;6.93;6.30;;;;;;;22.98;73.29;100831.66;4939813;27;102554;-63
2021/07/01 07:55:11;;;;;;;7.40;6.80;;;;;;;23.00;73.28;100828.53;4936504;27;102079;-64
2021/07/01 07:57:39;;;;;;;7.65;6.90;;;;;;;23.01;73.28;100824.59;4941301;27;104097;-64
2021/07/01 08:00:09;;;;;;;7.07;6.47;;;;;;;23.01;73.11;100811.53;4942168;27;102729;-64
2021/07/01 08:02:45;;;;;;;7.05;6.55;;;;;;;23.02;73.27;100809.56;4944970;27;102540;-64
2021/07/01 08:05:14;;;;;;;6.68;6.18;;;;;;;23.02;73.31;100815.91;4938276;27;102638;-64
2021/07/01 08:07:41;;;;;;;7.15;6.55;;;;;;;23.03;73.06;100823.06;4941333;27;104228;-64
2021/07/01 08:10:11;;;;;;;7.20;6.60;;;;;;;23.03;73.19;100817.53;4938101;27;102891;-63
2021/07/01 08:12:41;;;;;;;6.70;6.13;;;;;;;23.04;73.09;100826.66;4940181;27;102190;-63
2021/07/01 08:15:12;;;;;;;7.03;6.40;;;;;;;23.03;73.16;100819.50;4939278;28;102743;-64
2021/07/01 08:17:41;;;;;;;6.55;6.05;;;;;;;23.03;73.49;100806.41;4948391;27;103771;-63
2021/07/01 08:20:08;;;;;;;;;;;;;;;23.05;73.25;100802.50;4943843;27;102524;-65
2021/07/01 08:22:35;;;;;;;7.03;6.40;;;;;;;23.05;73.30;100799.72;4938388;27;102576;-63
2021/07/01 08:25:03;;;;;;;6.82;6.32;;;;;;;23.05;73.21;100802.50;4938829;27;102521;-64
2021/07/01 08:27:30;;;;;;;7.20;6.70;;;;;;;23.06;72.95;100804.13;4942118;27;104178;-64
2021/07/01 08:29:57;;;;;;;6.75;6.25;;;;;;;23.06;73.28;100804.91;4940921;27;102723;-63
2021/07/01 08:32:25;;;;;;;6.38;5.88;;;;;;;23.06;73.01;100793.81;4937308;27;102036;-63
2021/07/01 08:34:52;;;;;;;6.38;5.95;;;;;;;23.07;73.20;100795.41;4958329;27;102191;-63
2021/07/01 08:37:21;;;;;;;6.38;5.72;;;;;;;23.08;73.15;100799.81;4941122;27;103810;-64
2021/07/01 08:39:50;;;;;;;6.72;6.13;;;;;;;23.08;73.04;100791.50;4965581;27;102558;-63
2021/07/01 08:42:21;;;;;;;6.35;5.85;;;;;;;23.08;73.28;100799.81;4941113;27;103839;-63
2021/07/01 08:44:56;;;;;;;6.03;5.63;;;;;;;23.09;73.25;100793.09;4946018;27;102100;-63
2021/07/01 08:47:29;;;;;;;6.45;5.95;;;;;;;23.08;73.14;100791.50;4943774;27;102886;-64
2021/07/01 08:50:00;;;;;;;6.55;6.05;;;;;;;23.08;73.25;100788.72;4940654;27;102092;-63
2021/07/01 08:52:28;;;;;;;6.65;6.15;;;;;;;23.09;73.16;100792.31;4941278;27;102540;-63
2021/07/01 08:54:58;;;;;;;6.20;5.80;;;;;;;23.09;73.11;100782.00;4935312;28;102370;-63
2021/07/01 08:57:30;;;;;;;6.38;5.88;;;;;;;23.09;73.11;100770.09;4930690;27;104150;-63
2021/07/01 09:00:01;;;;;;;6.70;6.10;;;;;;;23.07;73.05;100745.47;4942764;27;102309;-64
2021/07/01 09:02:35;;;;;;;6.65;6.03;;;;;;;23.07;73.24;100705.78;4941696;27;102560;-63
2021/07/01 09:05:06;;;;;;;6.22;5.72;;;;;;;23.07;73.08;100697.47;4944996;27;102641;-64
2021/07/01 09:07:36;;;;;;;6.82;6.22;;;;;;;23.07;73.01;100712.16;4941438;27;104107;-64
2021/07/01 09:10:08;;;;;;;7.07;6.32;;;;;;;23.07;73.29;100723.25;4939792;27;102236;-63
2021/07/01 09:12:38;;;;;;;6.38;5.88;;;;;;;23.07;73.05;100728.81;4938202;27;102699;-63
2021/07/01 09:15:09;;;;;;;6.45;5.95;;;;;;;23.08;72.99;100712.94;4943656;27;102543;-64
2021/07/01 09:17:39;;;;;;;5.75;5.32;;;;;;;23.08;73.05;100687.97;4932274;27;104779;-63
2021/07/01 09:20:08;;;;;;;6.75;6.15;;;;;;;23.10;73.07;100678.13;4941757;27;102724;-63
2021/07/01 09:22:34;;;;;;;6.28;5.78;;;;;;;23.11;73.09;100685.28;4938167;27;103589;-63
2021/07/01 09:25:03;;;;;;;6.07;5.57;;;;;;;23.12;73.11;100686.91;4958058;27;102203;-63
2021/07/01 09:27:31;;;;;;;6.78;6.28;;;;;;;23.12;72.97;100686.91;4934837;27;104824;-63
2021/07/01 09:29:58;;;;;;;6.75;6.25;;;;;;;23.12;72.96;100678.59;4951638;27;102609;-64
2021/07/01 09:32:28;;;;;;;6.03;5.53;;;;;;;23.12;73.06;100664.72;4940847;27;102452;-64
2021/07/01 09:34:56;;;;;;;6.13;5.65;;;;;;;23.13;73.15;100654.41;4946105;27;102650;-63
2021/07/01 09:37:31;;;;;;;6.72;6.13;;;;;;;23.12;73.04;100664.72;4943157;27;104097;-64
2021/07/01 09:39:58;;;;;;;6.38;5.88;;;;;;;23.13;72.78;100666.31;4943080;27;102507;-62
2021/07/01 09:42:29;;;;;;;6.13;5.63;;;;;;;23.13;73.04;100658.00;4932311;28;102637;-63
2021/07/01 09:45:03;;;;;;;6.18;5.70;;;;;;;23.12;73.04;100642.50;4959964;27;102539;-63
2021/07/01 09:47:30;;;;;;;5.70;5.30;;;;;;;23.14;73.08;100640.16;4940643;27;103970;-63
2021/07/01 09:50:02;;;;;;;6.00;5.45;;;;;;;23.14;72.90;100645.72;4946329;27;102647;-63
2021/07/01 09:52:33;;;;;;;5.82;5.38;;;;;;;23.16;72.94;100640.63;4946840;27;102702;-66
2021/07/01 09:55:01;;;;;;;5.63;5.22;;;;;;;23.19;72.81;100626.03;4940554;27;102854;-64
2021/07/01 09:57:31;;;;;;;6.32;5.82;;;;;;;23.19;72.82;100630.78;4938211;27;104032;-63
2021/07/01 09:59:59;;;;;;;6.97;6.38;;;;;;;23.19;72.71;100623.25;4938700;27;102769;-63
2021/07/01 10:02:28;;;;;;;6.53;5.93;;;;;;;23.21;72.86;100620.91;4944349;27;103005;-63
2021/07/01 10:04:54;;;;;;;6.63;6.03;;;;;;;23.22;72.80;100616.97;4950299;27;102390;-63
2021/07/01 10:07:23;;;;;;;6.50;6.00;;;;;;;23.23;72.65;100610.25;4944068;28;103984;-63
2021/07/01 10:09:53;;;;;;;6.18;5.72;;;;;;;23.23;72.86;100596.38;4937323;27;102009;-62
2021/07/01 10:12:26;;;;;;;6.75;6.25;;;;;;;23.25;72.72;100596.81;4937548;27;102108;-64
2021/07/01 10:14:58;;;;;;;6.57;6.07;;;;;;;23.27;72.86;100588.94;4940685;27;103372;-63
2021/07/01 10:17:30;;;;;;;7.85;7.18;;;;;;;23.29;72.78;100568.31;4928045;27;104015;-63
2021/07/01 10:20:07;;;;;;;7.30;6.63;;;;;;;23.30;72.76;100569.91;4935548;27;102572;-63
2021/07/01 10:22:39;;;;;;;7.97;7.38;;;;;;;23.31;73.17;100554.91;4982981;27;102003;-64
2021/07/01 10:25:08;;;;;;;7.75;7.15;;;;;;;23.32;73.11;100548.16;4942422;27;106279;-63
2021/07/01 10:27:40;;;;;;;7.43;6.78;;;;;;;23.32;72.75;100550.94;4936514;27;103803;-63
2021/07/01 10:30:17;;;;;;;7.13;6.63;;;;;;;23.32;72.90;100550.94;4938343;27;102150;-63
2021/07/01 10:32:47;;;;;;;8.15;7.45;;;;;;;23.33;73.35;100547.78;4952936;27;102449;-64
2021/07/01 10:35:26;;;;;;;8.75;7.97;;;;;;;23.33;73.21;100535.88;4946908;27;102138;-65
2021/07/01 10:38:04;;;;;;;7.75;7.13;;;;;;;23.34;73.09;100537.50;4941787;27;103793;-63
2021/07/01 10:40:34;;;;;;;8.65;7.60;;;;;;;23.34;73.30;100548.63;4933244;27;102434;-63
2021/07/01 10:43:01;;;;;;;8.10;7.40;;;;;;;23.35;72.95;100544.66;4936540;27;102318;-64
2021/07/01 10:45:27;;;;;;;7.78;7.13;;;;;;;23.35;73.17;100555.78;4942711;27;105467;-63
2021/07/01 10:48:11;;;;;;;8.55;7.75;;;;;;;23.34;72.86;100554.19;4926138;27;103630;-63
2021/07/01 10:50:38;;;;;;;8.43;7.72;;;;;;;23.34;73.01;100559.72;4934426;27;102607;-63
2021/07/01 10:53:25;;;;;;;9.00;8.20;;;;;;;23.35;72.85;100561.34;4951589;27;102206;-63
2021/07/01 10:55:52;;;;;;;8.48;7.78;;;;;;;23.33;72.90;100553.34;4930119;27;102779;-64
2021/07/01 10:58:20;;;;;;;8.27;7.57;;;;;;;23.34;72.90;100556.94;4932439;27;103047;-63
2021/07/01 11:00:46;;;;;;;8.13;7.55;;;;;;;23.32;72.90;100548.97;4947335;27;102115;-63
2021/07/01 11:03:21;;;;;;;8.80;8.10;;;;;;;23.33;73.22;100549.78;4938096;27;102149;-63
2021/07/01 11:05:48;;;;;;;8.95;8.32;;;;;;;23.32;73.03;100550.94;4947822;27;102085;-64
2021/07/01 11:08:25;;;;;;;8.80;8.10;;;;;;;23.31;72.81;100550.16;4941918;28;103946;-63
2021/07/01 11:10:53;;;;;;;9.20;8.40;;;;;;;23.31;72.93;100549.34;4946185;27;102021;-64
2021/07/01 11:13:23;;;;;;;9.90;9.07;;;;;;;23.33;73.06;100560.88;4944275;27;103165;-64
2021/07/01 11:16:07;;;;;;;9.07;8.38;;;;;;;23.33;72.83;100555.31;4946658;27;102229;-64
2021/07/01 11:18:35;;;;;;;8.50;7.90;;;;;;;23.32;73.02;100550.94;4942256;27;104104;-63
2021/07/01 11:21:13;;;;;;;9.27;8.38;;;;;;;23.32;72.92;100548.16;4945651;27;102428;-63
2021/07/01 11:23:43;;;;;;;9.50;8.48;;;;;;;23.31;73.04;100543.78;4943665;27;102736;-64
2021/07/01 11:26:29;;;;;;;9.02;8.32;;;;;;;23.30;72.87;100537.44;4940047;27;102414;-64